Time;durP1;ratioP1;P1;durP2;ratioP2;P2;SDS_P1;SDS_P2;PMS_P1;PMS_P2;Temp;Humidity;BMP_temperature;BMP_pressure;BME280_temperature;BME280_humidity;BME280_pressure;Samples;Min_cycle;Max_cycle;Signal;HPM_P1;HPM_P2
2022/05/14 00:00:55;;;;;;;8.57;7.20;;;;;;;7.62;81.48;99009.72;4187807;28;20075;-69
2022/05/14 00:02:58;;;;;;;9.52;8.00;;;;;;;7.59;82.00;99008.44;4185930;28;20414;-69
2022/05/14 00:04:58;;;;;;;12.23;7.68;;;;;;;7.61;81.02;99010.84;4186493;28;20032;-69
2022/05/14 00:06:59;;;;;;;9.00;7.53;;;;;;;7.61;81.38;99008.09;4187760;28;20023;-69
2022/05/14 00:09:04;;;;;;;9.35;6.63;;;;;;;7.54;81.86;99002.38;4186363;28;20104;-69
2022/05/14 00:13:25;;;;;;;7.32;6.60;;;;;;;7.51;81.57;99003.06;4190348;28;20118;-69
2022/05/14 00:15:25;;;;;;;8.05;6.22;;;;;;;7.47;82.57;99000.22;4188357;28;20408;-69
2022/05/14 00:17:26;;;;;;;7.03;6.32;;;;;;;7.44;82.87;99006.38;4191994;28;20463;-69
2022/05/14 00:19:27;;;;;;;7.18;6.38;;;;;;;7.36;84.16;99009.25;4189663;28;20063;-69
2022/05/14 00:21:27;;;;;;;10.73;6.90;;;;;;;7.32;84.21;99000.88;4188661;28;20085;-69
2022/05/14 00:23:27;;;;;;;10.07;6.97;;;;;;;7.28;83.59;98998.03;4188659;28;20737;-69
2022/05/14 00:25:29;;;;;;;8.05;6.55;;;;;;;7.26;84.50;98997.56;4190186;28;20607;-69
2022/05/14 00:27:29;;;;;;;9.13;6.65;;;;;;;7.25;83.72;98998.69;4188824;28;20041;-69
2022/05/14 00:29:30;;;;;;;7.75;6.95;;;;;;;7.26;83.66;98997.56;4190067;28;20409;-69
2022/05/14 00:31:31;;;;;;;7.28;6.07;;;;;;;7.25;83.64;98997.91;4188363;28;20131;-69
2022/05/14 00:33:31;;;;;;;8.52;6.10;;;;;;;7.17;83.90;98996.88;4189233;28;20894;-69
2022/05/14 00:35:32;;;;;;;11.18;6.18;;;;;;;7.14;83.75;98994.00;4188502;28;20025;-69
2022/05/14 00:37:34;;;;;;;7.03;5.97;;;;;;;7.12;83.87;99005.38;4188387;28;20402;-69
2022/05/14 00:39:34;;;;;;;7.30;6.55;;;;;;;7.10;84.34;99009.59;4187939;28;20283;-69
2022/05/14 00:41:36;;;;;;;6.93;6.15;;;;;;;7.03;83.91;98996.38;4188071;28;20032;-69
2022/05/14 00:44:09;;;;;;;6.77;6.07;;;;;;;7.02;84.83;99006.59;4189099;28;20044;-69
2022/05/14 00:46:23;;;;;;;8.57;5.93;;;;;;;7.01;83.83;99007.72;4178879;28;20367;-69
2022/05/14 00:48:30;;;;;;;7.40;5.90;;;;;;;7.09;81.91;99016.22;4187853;28;20035;-69
2022/05/14 00:50:46;;;;;;;7.05;5.72;;;;;;;7.14;81.80;99005.00;4188955;28;20542;-69
2022/05/14 00:52:46;;;;;;;6.53;5.53;;;;;;;7.14;83.37;99002.25;4188352;28;20361;-69
2022/05/14 00:54:52;;;;;;;7.22;5.57;;;;;;;7.06;83.03;99005.91;4188855;28;20115;-69
2022/05/14 00:56:59;;;;;;;7.82;5.65;;;;;;;6.99;84.23;99011.97;4190830;28;20360;-69
2022/05/14 00:59:08;;;;;;;7.65;5.30;;;;;;;6.94;83.56;99010.25;4187026;28;20025;-69
2022/05/14 01:01:08;;;;;;;6.43;5.32;;;;;;;6.94;83.36;99003.94;4188251;28;20040;-69
2022/05/14 01:03:09;;;;;;;8.00;5.78;;;;;;;6.88;84.26;99002.56;4188315;28;20272;-69
2022/05/14 01:05:12;;;;;;;7.60;5.32;;;;;;;6.83;84.52;99002.78;4188628;28;20032;-69
2022/05/14 01:07:16;;;;;;;9.95;6.25;;;;;;;6.79;84.45;99007.38;4187799;28;20104;-69
2022/05/14 01:09:16;;;;;;;8.80;4.97;;;;;;;6.78;83.58;99009.28;4186286;28;20051;-69
2022/05/14 01:11:17;;;;;;;5.90;5.28;;;;;;;6.84;83.48;99012.63;4188223;28;20116;-69
2022/05/14 01:13:18;;;;;;;7.60;5.28;;;;;;;6.78;84.25;99001.03;4188055;28;20024;-69
2022/05/14 01:15:22;;;;;;;8.27;5.70;;;;;;;6.71;85.19;99004.38;4187964;28;20056;-69
2022/05/14 01:17:22;;;;;;;6.88;5.40;;;;;;;6.66;85.45;98995.50;4187041;28;20302;-69
2022/05/14 01:19:23;;;;;;;5.65;5.07;;;;;;;6.60;84.58;99003.16;4187138;28;20790;-68
2022/05/14 01:21:48;;;;;;;5.90;5.30;;;;;;;6.57;85.91;99000.31;4188000;28;20086;-69
2022/05/14 01:26:28;;;;;;;5.88;5.20;;;;;;;6.52;84.86;99006.78;4189318;28;20063;-69
2022/05/14 01:28:29;;;;;;;8.10;5.50;;;;;;;6.50;86.41;99000.84;4186038;28;20016;-68
2022/05/14 01:30:30;;;;;;;5.75;5.22;;;;;;;6.47;87.66;99002.34;4190814;28;20384;-69
2022/05/14 01:32:30;;;;;;;8.30;6.38;;;;;;;6.44;89.07;98992.00;4192626;28;20025;-69
2022/05/14 01:34:33;;;;;;;6.75;5.68;;;;;;;6.42;88.74;98997.03;4198941;28;20372;-69
2022/05/14 01:36:34;;;;;;;;;;;;;;;6.43;88.62;98989.59;4202533;28;20024;-69
2022/05/14 01:38:35;;;;;;;7.75;5.68;;;;;;;6.41;87.78;98998.19;4187808;28;19919;-69
2022/05/14 01:40:36;;;;;;;6.00;5.40;;;;;;;6.41;87.54;98995.44;4198868;28;20028;-69
2022/05/14 01:42:36;;;;;;;7.28;5.80;;;;;;;6.38;88.36;98993.38;4195401;28;20123;-68
2022/05/14 01:44:37;;;;;;;6.57;5.40;;;;;;;6.33;88.81;98993.56;4189315;28;20496;-69
2022/05/14 01:46:37;;;;;;;6.30;5.70;;;;;;;6.31;89.43;98982.13;4192435;28;20164;-69
2022/05/14 01:48:37;;;;;;;6.22;5.03;;;;;;;6.30;89.06;98990.69;4189775;28;20047;-69
2022/05/14 01:50:38;;;;;;;5.82;5.22;;;;;;;6.31;87.26;98992.31;4188668;28;20139;-69
2022/05/14 01:52:38;;;;;;;6.20;5.20;;;;;;;6.31;87.70;98992.31;4188398;28;20032;-69
2022/05/14 01:54:39;;;;;;;6.75;5.03;;;;;;;6.36;86.00;98994.81;4188120;28;20060;-69
2022/05/14 01:56:39;;;;;;;5.55;4.95;;;;;;;6.52;83.25;99000.50;4188723;28;20071;-68
2022/05/14 01:58:40;;;;;;;6.18;4.47;;;;;;;6.59;83.17;98996.06;4187027;28;20054;-68
2022/05/14 02:00:40;;;;;;;5.35;4.85;;;;;;;6.54;84.89;98996.28;4187734;28;20020;-68
2022/05/14 02:02:41;;;;;;;8.82;5.05;;;;;;;6.46;86.04;98997.19;4192760;28;20086;-68
2022/05/14 02:04:41;;;;;;;5.25;4.70;;;;;;;6.38;86.54;98992.56;4191999;28;20540;-69
2022/05/14 02:06:43;;;;;;;6.45;4.78;;;;;;;6.27;86.17;98988.59;4191462;28;20102;-69
2022/05/14 02:08:43;;;;;;;6.03;4.95;;;;;;;6.15;86.26;98986.63;4189345;28;20475;-68
2022/05/14 02:10:44;;;;;;;8.32;5.10;;;;;;;6.08;86.70;98992.66;4192396;28;20051;-68
2022/05/14 02:12:45;;;;;;;8.95;5.10;;;;;;;6.04;86.87;98988.97;4192915;28;20043;-69
2022/05/14 02:14:45;;;;;;;7.38;4.97;;;;;;;5.97;87.71;98994.19;4188954;28;20024;-68
2022/05/14 02:16:46;;;;;;;6.57;5.15;;;;;;;5.94;87.52;98989.34;4188139;28;20302;-68
2022/05/14 02:18:46;;;;;;;7.95;4.70;;;;;;;5.93;87.32;98989.69;4186752;28;20363;-68
2022/05/14 02:20:47;;;;;;;10.85;5.00;;;;;;;5.89;88.07;98992.28;4187742;28;20032;-69
2022/05/14 02:22:47;;;;;;;5.82;4.70;;;;;;;5.85;86.73;99000.38;4187926;28;20582;-68
2022/05/14 02:24:48;;;;;;;5.63;4.85;;;;;;;5.81;88.65;99001.41;4187832;28;20183;-68
2022/05/14 02:26:48;;;;;;;7.70;5.30;;;;;;;5.81;88.08;98995.91;4187258;28;20460;-68
2022/05/14 02:28:48;;;;;;;6.15;5.35;;;;;;;5.80;87.86;98983.31;4190810;28;20443;-68
2022/05/14 02:30:49;;;;;;;8.05;5.07;;;;;;;5.79;87.43;98993.50;4188844;28;20464;-68
2022/05/14 02:32:49;;;;;;;7.35;5.25;;;;;;;5.80;87.43;98991.56;4187477;28;20675;-68
2022/05/14 02:34:50;;;;;;;5.80;5.07;;;;;;;5.80;87.43;98997.03;4187586;28;20117;-68
2022/05/14 02:36:50;;;;;;;7.65;4.90;;;;;;;5.73;88.24;98992.06;4188066;28;20412;-68
2022/05/14 02:38:51;;;;;;;6.93;5.55;;;;;;;5.66;90.44;98985.50;4198508;28;20054;-69
2022/05/14 02:40:51;;;;;;;6.07;4.80;;;;;;;5.62;90.45;98991.66;4199276;28;20025;-68
2022/05/14 02:42:52;;;;;;;6.50;5.28;;;;;;;5.57;92.38;98991.06;4187719;28;20426;-68
2022/05/14 02:44:52;;;;;;;6.78;5.68;;;;;;;5.55;93.08;98993.34;4202239;28;20024;-68
2022/05/14 02:46:52;;;;;;;8.13;5.63;;;;;;;5.54;93.65;98997.19;4187774;28;20028;-68
2022/05/14 02:48:53;;;;;;;7.35;5.10;;;;;;;5.52;94.29;98981.06;4199272;28;20027;-68
2022/05/14 02:50:53;;;;;;;9.38;5.97;;;;;;;5.50;93.44;98986.06;4195037;28;20020;-68
2022/05/14 02:52:53;;;;;;;9.57;6.22;;;;;;;5.46;94.04;98985.16;4187332;28;20704;-69
2022/05/14 02:54:54;;;;;;;7.88;6.03;;;;;;;5.47;94.22;98994.19;4186943;28;20028;-68
2022/05/14 02:56:54;;;;;;;9.75;6.75;;;;;;;5.44;94.48;98998.38;4187245;28;20033;-68
2022/05/14 02:59:09;;;;;;;6.47;5.60;;;;;;;5.43;94.59;98996.78;4185557;28;20120;-68
2022/05/14 03:01:11;;;;;;;6.72;5.20;;;;;;;5.46;91.43;98996.13;4193722;28;20038;-68
2022/05/14 03:03:11;;;;;;;7.72;6.03;;;;;;;5.46;90.66;98990.63;4189043;28;20107;-68
2022/05/14 03:05:13;;;;;;;7.20;5.57;;;;;;;5.49;90.17;99003.69;4186846;28;20436;-68
2022/05/14 03:07:15;;;;;;;5.28;4.75;;;;;;;5.45;89.37;98993.69;4186738;28;20036;-68
2022/05/14 03:09:15;;;;;;;7.13;5.88;;;;;;;5.43;88.97;98995.97;4193094;28;20081;-68
2022/05/14 03:11:15;;;;;;;7.95;5.28;;;;;;;5.39;90.58;99000.53;4187064;28;20458;-68
2022/05/14 03:13:16;;;;;;;6.75;5.13;;;;;;;5.39;90.10;98995.84;4197836;28;20020;-68
2022/05/14 03:15:16;;;;;;;6.93;4.95;;;;;;;5.44;89.50;99006.59;4186786;28;20028;-68
2022/05/14 03:17:18;;;;;;;5.40;4.55;;;;;;;5.44;89.70;99005.81;4187034;28;20036;-68
2022/05/14 03:19:19;;;;;;;7.10;4.37;;;;;;;5.44;89.68;99003.06;4186246;28;20042;-68
2022/05/14 03:21:19;;;;;;;6.20;4.55;;;;;;;5.45;89.71;99008.22;4186842;28;20060;-68
2022/05/14 03:23:19;;;;;;;5.20;4.50;;;;;;;5.47;88.41;99011.44;4187392;28;20471;-68
2022/05/14 03:25:20;;;;;;;6.30;4.47;;;;;;;5.53;87.23;99009.31;4201527;28;20431;-68
2022/05/14 03:27:20;;;;;;;7.55;4.90;;;;;;;5.47;87.90;99008.72;4189541;28;20107;-68
2022/05/14 03:29:20;;;;;;;7.47;4.78;;;;;;;5.47;89.33;99008.72;4186299;28;20282;-68
2022/05/14 03:31:21;;;;;;;7.07;4.30;;;;;;;5.51;87.42;99017.06;4186746;28;20024;-68
2022/05/14 03:33:21;;;;;;;5.90;4.68;;;;;;;5.57;86.43;99013.81;4186961;28;20115;-68
2022/05/14 03:35:21;;;;;;;7.15;4.65;;;;;;;5.59;88.05;99014.28;4186851;28;20369;-68
2022/05/14 03:37:26;;;;;;;7.28;5.00;;;;;;;5.58;88.54;99001.69;4187145;28;20036;-68
2022/05/14 03:39:26;;;;;;;9.07;5.45;;;;;;;5.58;89.64;99012.69;4185380;28;20449;-68
2022/05/14 03:41:28;;;;;;;6.72;5.63;;;;;;;5.53;90.98;99015.59;4191829;28;20056;-68
2022/05/14 03:43:30;;;;;;;6.35;4.70;;;;;;;5.55;90.45;99016.09;4202283;28;20032;-68
2022/05/14 03:45:30;;;;;;;15.75;6.15;;;;;;;5.53;91.63;99015.59;4190229;28;20449;-68
2022/05/14 03:47:31;;;;;;;9.00;5.53;;;;;;;5.40;94.56;99019.41;4193105;28;20435;-68
2022/05/14 03:49:31;;;;;;;5.50;4.70;;;;;;;5.34;94.94;99016.03;4201900;28;20380;-68
2022/05/14 03:51:31;;;;;;;6.63;4.47;;;;;;;5.40;92.58;99019.41;4194809;28;20037;-68
2022/05/14 03:53:33;;;;;;;9.25;5.00;;;;;;;5.45;90.46;99021.94;4186050;28;20465;-68
2022/05/14 03:55:33;;;;;;;7.20;4.53;;;;;;;5.46;90.61;99029.06;4186645;28;20036;-68
2022/05/14 03:57:34;;;;;;;8.25;4.97;;;;;;;5.46;92.26;99028.22;4186914;28;20074;-68
2022/05/14 03:59:35;;;;;;;5.20;4.22;;;;;;;5.44;93.04;99022.28;4187938;28;20032;-68
2022/05/14 04:01:36;;;;;;;6.50;4.32;;;;;;;5.48;93.39;99028.72;4201601;28;20036;-68
2022/05/14 04:03:36;;;;;;;7.47;4.55;;;;;;;5.49;94.19;99022.09;4201252;28;20055;-68
2022/05/14 04:05:37;;;;;;;7.85;4.18;;;;;;;5.52;94.69;99033.22;4194385;28;20032;-68
2022/05/14 04:07:37;;;;;;;7.88;4.40;;;;;;;5.57;95.26;99038.53;4186079;28;20129;-68
2022/05/14 04:09:38;;;;;;;4.82;3.80;;;;;;;5.63;92.87;99039.16;4185491;28;20449;-68
2022/05/14 04:11:38;;;;;;;6.68;4.10;;;;;;;5.69;91.81;99037.78;4186770;28;20036;-68
2022/05/14 04:13:39;;;;;;;7.45;4.22;;;;;;;5.74;92.31;99036.81;4186286;28;20051;-68
2022/05/14 04:15:39;;;;;;;5.13;4.13;;;;;;;5.76;94.02;99040.81;4186307;28;20028;-68
2022/05/14 04:17:41;;;;;;;4.93;4.10;;;;;;;5.82;93.02;99035.94;4192280;28;20035;-68
2022/05/14 04:19:41;;;;;;;8.65;4.22;;;;;;;5.88;91.69;99040.13;4200699;28;20283;-68
2022/05/14 04:21:42;;;;;;;6.43;3.67;;;;;;;6.02;88.65;99046.19;4200486;28;20434;-68
2022/05/14 04:23:42;;;;;;;4.50;3.55;;;;;;;6.15;87.01;99044.31;4201717;28;20024;-68
2022/05/14 04:25:42;;;;;;;4.75;3.90;;;;;;;6.25;87.27;99043.09;4201529;28;20369;-68
2022/05/14 04:27:44;;;;;;;5.82;3.55;;;;;;;6.37;85.43;99045.91;4201578;28;20410;-68
2022/05/14 04:29:45;;;;;;;5.43;3.53;;;;;;;6.48;85.08;99044.38;4186613;28;20056;-68
2022/05/14 04:31:45;;;;;;;5.25;3.58;;;;;;;6.60;84.20;99049.09;4186430;28;20052;-68
2022/05/14 04:33:45;;;;;;;5.45;4.43;;;;;;;6.70;84.17;99049.50;4186586;28;20036;-68
2022/05/14 04:35:46;;;;;;;5.70;4.25;;;;;;;6.80;84.20;99044.72;4186473;28;20066;-68
2022/05/14 04:37:46;;;;;;;6.15;4.18;;;;;;;6.82;84.26;99048.72;4185963;28;20064;-68
2022/05/14 04:39:49;;;;;;;7.50;4.07;;;;;;;6.91;84.86;99048.63;4185730;28;20094;-68
2022/05/14 04:41:49;;;;;;;5.05;4.55;;;;;;;6.98;83.87;99057.94;4186119;28;20033;-68
2022/05/14 04:43:49;;;;;;;5.07;3.95;;;;;;;7.04;83.85;99053.03;4193211;28;20189;-68
2022/05/14 04:45:50;;;;;;;6.50;4.20;;;;;;;7.08;84.18;99048.44;4187499;28;20138;-68
2022/05/14 04:47:50;;;;;;;6.25;4.03;;;;;;;7.13;84.09;99047.44;4186356;28;20024;-68
2022/05/14 04:49:51;;;;;;;9.75;4.97;;;;;;;7.19;84.27;99049.59;4200833;28;20454;-68
2022/05/14 04:51:51;;;;;;;4.45;4.05;;;;;;;7.23;85.60;99042.28;4198904;28;20028;-68
2022/05/14 04:53:52;;;;;;;5.15;4.65;;;;;;;7.28;86.00;99049.50;4190817;28;20016;-68
2022/05/14 04:55:52;;;;;;;9.38;4.68;;;;;;;7.36;87.12;99045.03;4189611;28;20450;-68
2022/05/14 04:57:53;;;;;;;5.60;4.03;;;;;;;7.43;87.26;99045.28;4196892;28;20071;-68
2022/05/14 04:59:53;;;;;;;4.55;4.03;;;;;;;7.47;86.13;99051.72;4189840;28;20035;-68
2022/05/14 05:04:17;;;;;;;9.50;4.03;;;;;;;7.71;83.64;99051.72;4188877;28;20078;-68
2022/05/14 05:06:18;;;;;;;6.95;4.25;;;;;;;7.76;83.04;99048.72;4188648;28;20033;-68
2022/05/14 05:08:20;;;;;;;5.38;3.90;;;;;;;7.82;82.42;99050.09;4191289;28;20024;-68
2022/05/14 05:10:20;;;;;;;6.10;4.10;;;;;;;7.98;81.27;99049.41;4189529;28;20032;-68
2022/05/14 05:12:21;;;;;;;5.32;4.07;;;;;;;8.06;82.55;99049.25;4199663;28;20035;-68
2022/05/14 05:14:21;;;;;;;4.72;3.55;;;;;;;8.21;81.84;99053.25;4191854;28;20064;-68
2022/05/14 05:16:21;;;;;;;7.82;4.30;;;;;;;8.35;82.79;99064.72;4190841;28;20083;-68
2022/05/14 05:18:22;;;;;;;6.47;4.32;;;;;;;8.44;82.74;99057.13;4191865;28;20504;-68
2022/05/14 05:20:22;;;;;;;7.88;5.32;;;;;;;8.57;82.13;99059.84;4188236;28;20887;-68
2022/05/14 05:22:22;;;;;;;5.40;4.05;;;;;;;8.67;81.89;99057.38;4188998;28;20380;-68
2022/05/14 05:24:23;;;;;;;9.55;4.63;;;;;;;8.70;83.89;99062.22;4188676;28;20044;-68
2022/05/14 05:26:23;;;;;;;6.00;4.50;;;;;;;8.78;84.85;99062.41;4188538;28;20104;-68
2022/05/14 05:28:25;;;;;;;8.52;4.78;;;;;;;8.82;84.64;99069.63;4187757;28;20024;-68
2022/05/14 05:30:25;;;;;;;7.80;4.70;;;;;;;8.88;85.54;99061.91;4187781;28;20365;-68
2022/05/14 05:32:26;;;;;;;8.52;4.43;;;;;;;8.94;85.40;99066.81;4186124;28;20317;-68
2022/05/14 05:34:27;;;;;;;4.20;3.80;;;;;;;9.00;84.76;99061.81;4188221;28;20033;-68
2022/05/14 05:36:27;;;;;;;8.77;5.80;;;;;;;9.06;83.64;99073.41;4187067;28;20071;-68
2022/05/14 05:38:27;;;;;;;6.95;4.40;;;;;;;9.11;84.33;99065.69;4186763;28;20090;-68
2022/05/14 05:40:27;;;;;;;7.18;4.50;;;;;;;9.19;85.92;99066.69;4186308;28;20727;-68
2022/05/14 05:42:28;;;;;;;6.28;4.40;;;;;;;9.27;86.74;99072.03;4187559;28;20027;-68
2022/05/14 05:44:28;;;;;;;5.72;4.40;;;;;;;9.34;86.69;99070.59;4187662;28;20029;-68
2022/05/14 05:46:32;;;;;;;6.78;4.40;;;;;;;9.43;85.19;99074.81;4187523;28;20025;-68
2022/05/14 05:48:33;;;;;;;5.07;3.92;;;;;;;9.55;83.95;99074.72;4184651;28;20268;-68
2022/05/14 05:50:33;;;;;;;4.68;4.18;;;;;;;9.66;82.23;99076.91;4187314;28;20641;-68
2022/05/14 05:52:33;;;;;;;7.15;4.28;;;;;;;9.73;83.08;99069.59;4187733;28;20028;-68
2022/05/14 05:56:59;;;;;;;5.35;4.72;;;;;;;9.95;87.85;99076.47;4189313;28;20039;-68
2022/05/14 05:59:00;;;;;;;6.85;5.10;;;;;;;10.04;86.54;99079.03;4189394;28;20373;-68
2022/05/14 06:01:00;;;;;;;8.63;4.75;;;;;;;10.13;85.74;99071.34;4186753;28;20036;-68
2022/05/14 06:03:01;;;;;;;8.10;4.55;;;;;;;10.26;86.37;99083.09;4188201;28;20028;-68
2022/05/14 06:05:04;;;;;;;7.30;4.85;;;;;;;10.35;87.11;99090.03;4187397;28;20059;-68
2022/05/14 06:07:04;;;;;;;10.82;4.75;;;;;;;10.45;84.83;99085.91;4186617;28;20037;-68
2022/05/14 06:09:04;;;;;;;6.60;4.25;;;;;;;10.53;82.71;99090.44;4185773;28;20097;-68
2022/05/14 06:11:05;;;;;;;10.73;4.05;;;;;;;10.65;81.23;99086.72;4186321;28;20035;-68
2022/05/14 06:13:08;;;;;;;7.40;4.18;;;;;;;10.80;80.66;99088.59;4186819;28;20027;-68
2022/05/14 06:15:10;;;;;;;6.22;4.43;;;;;;;10.98;83.48;99077.88;4190042;28;20031;-68
2022/05/14 06:17:11;;;;;;;7.00;4.30;;;;;;;11.18;84.30;99081.44;4186260;28;20443;-68
2022/05/14 06:19:12;;;;;;;5.97;4.40;;;;;;;11.37;80.07;99083.34;4186835;28;20362;-68
2022/05/14 06:21:13;;;;;;;7.30;5.32;;;;;;;11.55;85.37;99087.25;4189502;28;20025;-68
2022/05/14 06:23:14;;;;;;;7.05;4.88;;;;;;;11.70;83.75;99091.84;4187364;28;20519;-68
2022/05/14 06:25:14;;;;;;;5.82;4.82;;;;;;;11.84;84.16;99096.06;4186750;28;20596;-68
2022/05/14 06:27:15;;;;;;;6.65;4.78;;;;;;;11.99;85.04;99089.56;4189411;28;20031;-68
2022/05/14 06:29:15;;;;;;;6.53;4.90;;;;;;;12.13;83.95;99088.97;4186254;28;20049;-68
2022/05/14 06:31:17;;;;;;;6.93;5.00;;;;;;;12.27;80.93;99092.78;4187440;28;20059;-69
2022/05/14 06:33:18;;;;;;;6.03;4.00;;;;;;;12.44;79.45;99093.41;4188425;28;20051;-68
2022/05/14 06:35:18;;;;;;;8.32;4.40;;;;;;;12.59;78.84;99089.66;4189540;28;20036;-68
2022/05/14 06:37:19;;;;;;;10.27;4.53;;;;;;;12.69;77.44;99090.97;4187360;28;20036;-68
2022/05/14 06:39:19;;;;;;;6.07;4.50;;;;;;;12.77;77.44;99089.88;4187213;28;20064;-69
2022/05/14 06:41:19;;;;;;;8.85;5.47;;;;;;;12.88;76.06;99097.13;4187042;28;20043;-68
2022/05/14 06:43:20;;;;;;;8.13;4.40;;;;;;;13.00;75.67;99093.34;4194090;28;20023;-69
2022/05/14 06:45:21;;;;;;;6.75;4.47;;;;;;;13.09;75.66;99087.47;4196200;28;20032;-69
2022/05/14 06:47:21;;;;;;;8.40;3.90;;;;;;;13.14;75.85;99090.69;4192839;28;20036;-69
2022/05/14 06:49:21;;;;;;;9.32;4.60;;;;;;;13.20;75.00;99085.63;4188969;28;20029;-68
2022/05/14 06:51:25;;;;;;;6.38;4.35;;;;;;;13.28;74.37;99094.84;4193897;28;20032;-69
2022/05/14 06:53:27;;;;;;;8.88;4.03;;;;;;;13.40;73.88;99095.34;4186731;28;20107;-69
2022/05/14 06:55:32;;;;;;;6.15;3.88;;;;;;;13.58;73.67;99100.31;4192041;28;20383;-69
2022/05/14 06:57:33;;;;;;;9.35;4.68;;;;;;;13.73;70.75;99105.59;4201498;28;20467;-69
2022/05/14 06:59:34;;;;;;;7.82;4.53;;;;;;;13.84;70.16;99099.34;4197016;28;20077;-69
2022/05/14 07:01:36;;;;;;;7.15;3.65;;;;;;;14.00;71.75;99102.66;4189818;28;20448;-69
2022/05/14 07:08:16;;;;;;;5.35;3.95;;;;;;;14.33;67.62;99096.13;4185679;28;20081;-70
2022/05/14 07:10:17;;;;;;;7.88;3.63;;;;;;;14.46;68.03;99108.56;4186885;28;20107;-70
2022/05/14 07:12:19;;;;;;;15.68;4.72;;;;;;;14.40;67.08;99098.97;4187488;28;20381;-70
2022/05/14 07:14:20;;;;;;;9.32;4.47;;;;;;;14.35;66.11;99099.31;4188076;28;20115;-69
2022/05/14 07:16:20;;;;;;;7.55;4.53;;;;;;;14.37;66.38;99104.50;4193912;28;20451;-70
2022/05/14 07:18:20;;;;;;;8.30;3.75;;;;;;;14.46;68.26;99094.63;4190683;28;20043;-71
2022/05/14 07:20:24;;;;;;;11.13;4.07;;;;;;;14.54;68.33;99096.25;4192589;28;20460;-71
2022/05/14 07:22:24;;;;;;;9.23;4.50;;;;;;;14.58;67.46;99105.47;4200307;28;20397;-70
2022/05/14 07:24:28;;;;;;;12.65;4.70;;;;;;;14.67;67.73;99107.88;4201705;28;20446;-70
2022/05/14 07:26:29;;;;;;;9.35;4.57;;;;;;;14.71;66.77;99097.53;4201662;28;20070;-71
2022/05/14 07:28:29;;;;;;;8.27;4.75;;;;;;;14.70;66.07;99095.94;4197148;28;20376;-71
2022/05/14 07:30:29;;;;;;;8.75;4.22;;;;;;;14.71;65.71;99113.47;4193844;28;20043;-71
2022/05/14 07:32:30;;;;;;;8.18;4.68;;;;;;;14.69;65.82;99101.91;4193493;28;20043;-70
2022/05/14 07:34:31;;;;;;;16.23;4.80;;;;;;;14.66;65.62;99092.38;4192144;28;20028;-70
2022/05/14 07:36:52;;;;;;;6.82;4.80;;;;;;;14.69;66.27;99099.94;4227060;27;20054;-71
2022/05/14 07:38:57;;;;;;;8.48;4.63;;;;;;;14.74;66.90;99096.78;4186059;28;20028;-71
2022/05/14 07:40:59;;;;;;;7.70;4.80;;;;;;;14.71;64.84;99099.53;4186602;28;20034;-71
2022/05/14 07:43:03;;;;;;;15.10;4.78;;;;;;;14.85;65.97;99100.41;4186970;28;20115;-70
2022/05/14 07:45:06;;;;;;;7.35;4.38;;;;;;;14.96;66.09;99103.22;4186906;28;20456;-71
2022/05/14 07:47:07;;;;;;;8.75;4.50;;;;;;;14.88;65.06;99090.44;4193116;28;20286;-69
2022/05/14 07:49:10;;;;;;;11.27;4.50;;;;;;;14.93;66.74;99100.44;4196827;28;20032;-70
2022/05/14 07:51:11;;;;;;;7.63;4.65;;;;;;;14.93;66.16;99094.88;4186229;28;20426;-70
2022/05/14 07:53:15;;;;;;;10.57;4.65;;;;;;;15.03;66.83;99088.53;4187042;28;20554;-70
2022/05/14 07:55:15;;;;;;;11.90;4.93;;;;;;;15.15;65.95;99088.97;4193631;28;20024;-70
2022/05/14 07:57:18;;;;;;;7.93;4.72;;;;;;;15.27;65.18;99089.78;4198036;28;20083;-70
2022/05/14 07:59:19;;;;;;;8.45;4.05;;;;;;;15.26;64.02;99093.78;4186155;28;20036;-70
2022/05/14 08:01:19;;;;;;;6.60;4.00;;;;;;;15.35;62.92;99092.19;4187873;28;20060;-70
2022/05/14 08:03:23;;;;;;;9.68;4.38;;;;;;;15.38;63.54;99090.59;4189913;28;20033;-70
2022/05/14 08:05:24;;;;;;;8.85;4.05;;;;;;;15.38;62.70;99096.19;4185303;28;20159;-70
2022/05/14 08:07:26;;;;;;;7.22;3.83;;;;;;;15.52;65.63;99095.41;4188437;28;20492;-70
2022/05/14 08:09:27;;;;;;;10.05;4.95;;;;;;;15.55;63.43;99089.03;4185008;28;20036;-70
2022/05/14 08:11:27;;;;;;;12.70;4.68;;;;;;;15.59;63.04;99082.28;4200890;28;20028;-69
2022/05/14 08:13:27;;;;;;;8.73;3.95;;;;;;;15.53;61.69;99085.84;4185880;28;20025;-69
2022/05/14 08:15:28;;;;;;;8.07;3.65;;;;;;;15.61;62.05;99093.06;4186014;28;20047;-69
2022/05/14 08:17:29;;;;;;;7.22;3.00;;;;;;;15.68;59.86;99090.28;4185216;28;20102;-70
2022/05/14 08:19:29;;;;;;;10.02;3.38;;;;;;;15.64;59.13;99081.94;4184797;28;20047;-69
2022/05/14 08:26:08;;;;;;;9.15;3.60;;;;;;;15.87;62.95;99086.31;4197719;28;20085;-69
2022/05/14 08:28:09;;;;;;;5.85;3.30;;;;;;;15.99;61.11;99086.72;4190290;28;20028;-70
2022/05/14 08:30:12;;;;;;;8.63;4.00;;;;;;;15.88;58.48;99079.53;4195505;28;20043;-70
2022/05/14 08:32:14;;;;;;;7.32;3.60;;;;;;;15.91;60.23;99081.53;4188199;28;20047;-70
2022/05/14 08:34:14;;;;;;;6.20;3.30;;;;;;;15.95;59.85;99076.72;4216079;27;20448;-70
2022/05/14 08:36:14;;;;;;;12.35;4.03;;;;;;;16.04;61.08;99079.13;4186362;28;20028;-69
2022/05/14 08:38:16;;;;;;;6.45;3.13;;;;;;;16.19;59.73;99075.91;4183479;28;20388;-69
2022/05/14 08:40:26;;;;;;;10.60;3.90;;;;;;;16.21;58.55;99075.50;4194196;28;20040;-70
2022/05/14 08:42:30;;;;;;;8.52;3.60;;;;;;;16.23;59.70;99076.72;4194780;28;20719;-69
2022/05/14 08:44:33;;;;;;;9.18;5.05;;;;;;;16.28;61.24;99073.50;4204476;28;20084;-69
2022/05/14 08:46:37;;;;;;;6.57;4.18;;;;;;;16.33;60.45;99077.09;4189387;28;20039;-69
2022/05/14 08:48:39;;;;;;;8.70;3.80;;;;;;;16.32;60.46;99067.91;4188400;28;20081;-69
2022/05/14 08:50:40;;;;;;;8.18;3.88;;;;;;;16.33;60.65;99066.72;4195093;28;20024;-69
2022/05/14 08:52:42;;;;;;;7.18;3.50;;;;;;;16.44;58.67;99066.69;4190577;28;20081;-69
2022/05/14 08:54:42;;;;;;;8.05;3.70;;;;;;;16.47;59.58;99060.31;4190047;28;20040;-69
2022/05/14 08:56:47;;;;;;;7.85;4.25;;;;;;;16.53;59.92;99067.06;4193753;28;20527;-69
2022/05/14 08:59:07;;;;;;;6.93;4.00;;;;;;;16.54;59.10;99060.25;4189486;28;20028;-69
2022/05/14 09:01:12;;;;;;;6.75;3.95;;;;;;;16.48;58.56;99059.09;4188974;28;20040;-69
2022/05/14 09:03:13;;;;;;;10.32;4.38;;;;;;;16.55;59.59;99064.69;4189179;28;20353;-69
2022/05/14 09:05:22;;;;;;;9.88;3.90;;;;;;;16.55;58.65;99057.09;4188666;28;20075;-69
2022/05/14 09:07:22;;;;;;;13.40;4.18;;;;;;;16.57;58.72;99056.69;4188894;28;20032;-69
2022/05/14 09:09:23;;;;;;;8.18;3.67;;;;;;;16.65;58.83;99065.84;4196276;28;20434;-69
2022/05/14 09:11:40;;;;;;;9.65;3.63;;;;;;;16.72;58.61;99061.06;4197658;28;20028;-69
2022/05/14 09:13:44;;;;;;;7.60;4.15;;;;;;;16.75;58.23;99065.03;4195096;28;20495;-69
2022/05/14 09:15:56;;;;;;;7.78;3.72;;;;;;;16.74;57.77;99069.81;4189372;28;20062;-70
2022/05/14 09:18:21;;;;;;;7.15;3.60;;;;;;;16.84;57.16;99063.38;4188920;28;20040;-69
2022/05/14 09:20:25;;;;;;;9.20;3.50;;;;;;;16.84;59.67;99055.00;4190021;28;20384;-69
2022/05/14 09:22:27;;;;;;;8.40;3.35;;;;;;;16.93;57.58;99062.94;4203899;28;20460;-70
2022/05/14 09:24:28;;;;;;;8.52;3.88;;;;;;;16.90;57.23;99052.59;4190977;28;20159;-70
2022/05/14 09:26:41;;;;;;;9.30;4.00;;;;;;;16.95;57.82;99059.72;4199933;28;20416;-70
2022/05/14 09:28:45;;;;;;;4.82;3.38;;;;;;;17.01;57.60;99053.31;4193510;28;20036;-70
2022/05/14 09:30:53;;;;;;;9.73;3.53;;;;;;;17.05;55.54;99061.69;4197396;28;20054;-70
2022/05/14 09:32:54;;;;;;;8.18;3.88;;;;;;;17.14;56.54;99062.03;4193279;28;20685;-70
2022/05/14 09:35:17;;;;;;;10.48;3.67;;;;;;;17.02;56.62;99051.31;4188353;28;20028;-70
2022/05/14 09:37:24;;;;;;;4.47;2.95;;;;;;;17.06;56.79;99052.91;4197796;28;20024;-70
2022/05/14 09:39:24;;;;;;;7.68;3.45;;;;;;;17.24;58.05;99061.19;4201774;28;20270;-70
2022/05/14 09:41:25;;;;;;;13.15;3.55;;;;;;;17.25;54.97;99051.59;4193800;28;20083;-70
2022/05/14 09:43:35;;;;;;;5.82;2.92;;;;;;;17.34;55.68;99051.94;4203277;28;20031;-70
2022/05/14 09:45:39;;;;;;;10.38;3.92;;;;;;;17.42;57.78;99047.09;4194385;28;20047;-71
2022/05/14 09:47:39;;;;;;;8.30;3.78;;;;;;;17.59;57.38;99040.56;4191780;28;20032;-72
2022/05/14 09:49:41;;;;;;;4.85;3.10;;;;;;;17.63;55.04;99035.75;4190533;28;20460;-71
2022/05/14 09:52:00;;;;;;;;;;;;;;;17.61;55.70;99038.13;4191290;28;20485;-69
2022/05/14 09:54:10;;;;;;;6.15;2.95;;;;;;;17.67;54.82;99039.28;4189177;28;19995;-71
2022/05/14 09:56:18;;;;;;;7.20;2.83;;;;;;;17.84;55.21;99037.56;4188479;28;20047;-70
2022/05/14 09:58:37;;;;;;;3.65;2.70;;;;;;;17.93;54.08;99035.09;4187553;28;20036;-71